createdAt,value
2019-05-30T00:00:14.445Z,96087.34
2019-05-30T00:02:26.525Z,96094.84
2019-05-30T00:04:54.134Z,96091.69
2019-05-30T00:07:21.627Z,96088.06
2019-05-30T00:09:49.018Z,96096.30
2019-05-30T00:12:16.407Z,96089.17
2019-05-30T00:14:43.757Z,96085.02
2019-05-30T00:17:11.381Z,96089.76
2019-05-30T00:19:38.748Z,96088.00
2019-05-30T00:22:06.127Z,96090.30
2019-05-30T00:24:33.472Z,96095.08
2019-05-30T00:27:00.839Z,96094.17
2019-05-30T00:29:28.170Z,96087.90
2019-05-30T00:31:55.589Z,96091.22
2019-05-30T00:34:23.026Z,96091.34
2019-05-30T00:36:50.385Z,96091.98
2019-05-30T00:39:17.881Z,96098.13
2019-05-30T00:41:45.230Z,96106.20
2019-05-30T00:44:12.704Z,96103.41
2019-05-30T00:46:40.098Z,96107.52
2019-05-30T00:49:07.438Z,96109.28
2019-05-30T00:51:34.801Z,96104.31
2019-05-30T00:54:02.899Z,96110.33
2019-05-30T00:56:30.319Z,96108.29
2019-05-30T00:58:58.670Z,96113.70
2019-05-30T01:01:26.100Z,96109.80
2019-05-30T01:03:53.470Z,96113.95
2019-05-30T01:06:21.638Z,96097.02
2019-05-30T01:08:49.038Z,96100.04
2019-05-30T01:11:16.357Z,96110.12
2019-05-30T01:13:43.680Z,96091.94
2019-05-30T01:16:11.067Z,96100.63
2019-05-30T01:18:38.421Z,96093.70
2019-05-30T01:21:05.794Z,96094.05
2019-05-30T01:23:33.117Z,96105.20
2019-05-30T01:26:01.362Z,96103.63
2019-05-30T01:28:29.120Z,96103.89
2019-05-30T01:31:00.235Z,96107.05
2019-05-30T01:33:25.738Z,96111.65
2019-05-30T01:35:53.097Z,96107.25
2019-05-30T01:38:20.500Z,96102.95
2019-05-30T01:40:47.866Z,96101.43
2019-05-30T01:43:15.219Z,96101.43
2019-05-30T01:45:42.590Z,96102.48
2019-05-30T01:48:09.926Z,96105.46
2019-05-30T01:50:37.303Z,96105.00
2019-05-30T01:53:04.858Z,96106.52
2019-05-30T01:55:32.228Z,96101.10
2019-05-30T01:58:01.491Z,96109.13
2019-05-30T02:00:37.540Z,96106.87
2019-05-30T02:03:05.102Z,96097.77
2019-05-30T02:05:32.458Z,96099.17
2019-05-30T02:08:01.000Z,96102.06
2019-05-30T02:10:28.366Z,96102.27
2019-05-30T02:12:55.718Z,96103.73
2019-05-30T02:15:23.105Z,96104.73
2019-05-30T02:17:50.425Z,96109.03
2019-05-30T02:20:18.118Z,96102.58
2019-05-30T02:22:45.521Z,96105.58
2019-05-30T02:25:15.406Z,96104.41
2019-05-30T02:27:42.753Z,96102.50
2019-05-30T02:30:12.731Z,96105.94
2019-05-30T02:32:39.518Z,96110.50
2019-05-30T02:35:07.800Z,96105.04
2019-05-30T02:37:36.155Z,96109.19
2019-05-30T02:40:07.505Z,96105.16
2019-05-30T02:42:33.339Z,96108.25
2019-05-30T02:45:01.448Z,96104.47
2019-05-30T02:47:29.563Z,96106.81
2019-05-30T02:49:56.924Z,96109.70
2019-05-30T02:52:24.285Z,96105.38
2019-05-30T02:54:51.680Z,96107.34
2019-05-30T02:57:19.024Z,96105.23
2019-05-30T02:59:46.426Z,96112.58
2019-05-30T03:02:16.805Z,96115.67
2019-05-30T03:04:43.063Z,96111.74
2019-05-30T03:07:11.354Z,96114.17
2019-05-30T03:09:39.726Z,96112.79
2019-05-30T03:12:09.073Z,96110.48
2019-05-30T03:14:36.338Z,96117.35
2019-05-30T03:17:05.358Z,96114.73
2019-05-30T03:19:33.198Z,96118.22
2019-05-30T03:22:02.814Z,96115.94
2019-05-30T03:24:29.788Z,96123.84
2019-05-30T03:26:57.166Z,96119.03
2019-05-30T03:29:24.515Z,96123.22
2019-05-30T03:31:52.167Z,96118.45
2019-05-30T03:34:27.930Z,96110.94
2019-05-30T03:36:48.983Z,96116.29
2019-05-30T03:39:16.318Z,96108.59
2019-05-30T03:41:43.798Z,96120.40
2019-05-30T03:44:13.473Z,96126.82
2019-05-30T03:46:45.356Z,96126.23
2019-05-30T03:49:16.667Z,96125.31
2019-05-30T03:51:45.025Z,96123.16
2019-05-30T03:54:14.186Z,96129.42
2019-05-30T03:56:45.178Z,96132.89
2019-05-30T03:59:27.970Z,96131.58
2019-05-30T04:02:13.443Z,96133.07
2019-05-30T04:04:48.944Z,96141.47
2019-05-30T04:07:19.544Z,96143.08
2019-05-30T04:09:47.931Z,96145.02
2019-05-30T04:12:29.012Z,96149.80
2019-05-30T04:15:02.745Z,96145.22
2019-05-30T04:17:30.059Z,96143.45
2019-05-30T04:19:57.465Z,96152.77
2019-05-30T04:22:24.797Z,96151.48
2019-05-30T04:24:52.257Z,96152.50
2019-05-30T04:27:19.638Z,96158.41
2019-05-30T04:29:46.982Z,96162.34
2019-05-30T04:32:14.456Z,96168.31
2019-05-30T04:34:41.890Z,96173.66
2019-05-30T04:37:10.690Z,96168.86
2019-05-30T04:39:38.236Z,96179.08
2019-05-30T04:42:05.584Z,96178.98
2019-05-30T04:44:32.973Z,96176.84
2019-05-30T04:47:00.340Z,96184.32
2019-05-30T04:49:27.676Z,96180.20
2019-05-30T04:51:55.072Z,96179.27
2019-05-30T04:54:22.519Z,96181.30
2019-05-30T04:56:49.907Z,96178.53
2019-05-30T04:59:17.953Z,96182.57
2019-05-30T05:01:46.538Z,96183.66
2019-05-30T05:04:15.354Z,96187.21
2019-05-30T05:06:43.101Z,96180.67
2019-05-30T05:09:11.956Z,96182.42
2019-05-30T05:11:39.564Z,96187.55
2019-05-30T05:14:06.918Z,96190.25
2019-05-30T05:16:36.344Z,96191.38
2019-05-30T05:19:03.530Z,96193.41
2019-05-30T05:21:30.882Z,96193.41
2019-05-30T05:23:58.211Z,96204.02
2019-05-30T05:26:25.577Z,96206.63
2019-05-30T05:28:52.929Z,96214.59
2019-05-30T05:31:20.434Z,96211.97
2019-05-30T05:33:56.784Z,96213.66
2019-05-30T05:36:18.837Z,96209.44
2019-05-30T05:38:46.361Z,96214.34
2019-05-30T05:41:13.706Z,96222.08
2019-05-30T05:43:41.038Z,96221.50
2019-05-30T05:46:08.418Z,96227.46
2019-05-30T05:48:35.770Z,96218.80
2019-05-30T05:51:03.159Z,96224.95
2019-05-30T05:53:30.495Z,96225.66
2019-05-30T05:55:57.871Z,96230.72
2019-05-30T05:58:26.454Z,96232.34
2019-05-30T06:00:54.051Z,96231.55
2019-05-30T06:03:22.255Z,96234.38
2019-05-30T06:05:53.452Z,96237.00
2019-05-30T06:08:19.526Z,96226.95
2019-05-30T06:10:47.038Z,96225.44
2019-05-30T06:13:14.422Z,96228.42
2019-05-30T06:15:41.757Z,96228.70
2019-05-30T06:18:09.093Z,96233.34
2019-05-30T06:20:36.451Z,96229.86
2019-05-30T06:23:03.799Z,96226.48
2019-05-30T06:25:32.968Z,96227.50
2019-05-30T06:28:00.418Z,96228.49
2019-05-30T06:30:28.784Z,96231.41
2019-05-30T06:32:56.310Z,96222.98
2019-05-30T06:35:24.969Z,96234.80
2019-05-30T06:37:52.461Z,96232.11
2019-05-30T06:40:19.793Z,96233.78
2019-05-30T06:42:47.159Z,96240.60
2019-05-30T06:45:14.813Z,96235.16
2019-05-30T06:47:42.169Z,96240.73
2019-05-30T06:50:09.922Z,96244.14
2019-05-30T06:52:37.273Z,96245.81
2019-05-30T06:55:05.293Z,96241.77
2019-05-30T06:57:32.719Z,96247.24
2019-05-30T07:00:00.124Z,96242.90
2019-05-30T07:02:28.405Z,96249.69
2019-05-30T07:04:56.663Z,96242.98
2019-05-30T07:07:25.126Z,96246.51
2019-05-30T07:09:52.660Z,96252.53
2019-05-30T07:12:20.011Z,96252.64
2019-05-30T07:14:47.492Z,96257.70
2019-05-30T07:17:14.873Z,96253.77
2019-05-30T07:19:42.214Z,96252.43
2019-05-30T07:22:09.575Z,96254.35
2019-05-30T07:24:36.931Z,96255.30
2019-05-30T07:27:04.381Z,96256.09
2019-05-30T07:29:32.124Z,96260.70
2019-05-30T07:31:59.672Z,96258.14
2019-05-30T07:34:28.149Z,96260.25
2019-05-30T07:36:56.098Z,96261.52
2019-05-30T07:39:26.302Z,96265.23
2019-05-30T07:42:05.615Z,96268.83
2019-05-30T07:44:21.958Z,96268.56
2019-05-30T07:46:49.359Z,96267.36
2019-05-30T07:49:16.709Z,96268.59
2019-05-30T07:51:44.050Z,96263.78
2019-05-30T07:54:11.410Z,96262.61
2019-05-30T07:56:38.800Z,96260.47
2019-05-30T07:59:06.209Z,96263.40
2019-05-30T08:01:34.644Z,96261.73
2019-05-30T08:04:02.209Z,96265.13
2019-05-30T08:06:29.612Z,96266.19
2019-05-30T08:08:56.970Z,96267.50
2019-05-30T08:11:24.329Z,96262.47
2019-05-30T08:13:51.708Z,96262.61
2019-05-30T08:16:19.046Z,96262.62
2019-05-30T08:18:46.457Z,96260.94
2019-05-30T08:21:13.812Z,96265.17
2019-05-30T08:23:41.190Z,96267.02
2019-05-30T08:26:08.681Z,96268.03
2019-05-30T08:28:36.402Z,96260.69
2019-05-30T08:31:04.007Z,96269.28
2019-05-30T08:33:31.498Z,96270.18
2019-05-30T08:35:58.860Z,96271.94
2019-05-30T08:38:26.215Z,96267.63
2019-05-30T08:40:53.807Z,96267.09
2019-05-30T08:43:21.677Z,96269.23
2019-05-30T08:45:49.029Z,96264.09
2019-05-30T08:48:16.510Z,96261.55
2019-05-30T08:50:44.796Z,96263.05
2019-05-30T08:53:12.350Z,96265.01
2019-05-30T08:55:40.624Z,96265.18
2019-05-30T08:58:08.199Z,96259.22
2019-05-30T09:00:35.572Z,96267.09
2019-05-30T09:03:03.346Z,96266.64
2019-05-30T09:05:30.831Z,96260.48
2019-05-30T09:07:58.270Z,96266.22
2019-05-30T09:10:25.782Z,96265.78
2019-05-30T09:12:53.176Z,96270.39
2019-05-30T09:15:22.107Z,96270.04
2019-05-30T09:17:49.738Z,96270.66
2019-05-30T09:20:17.635Z,96274.63
2019-05-30T09:22:45.544Z,96266.43
2019-05-30T09:25:15.259Z,96269.70
2019-05-30T09:27:44.548Z,96267.42
2019-05-30T09:30:12.871Z,96264.67
2019-05-30T09:32:41.319Z,96260.84
2019-05-30T09:35:11.447Z,96263.98
2019-05-30T09:37:40.252Z,96258.30
2019-05-30T09:40:08.954Z,96262.98
2019-05-30T09:42:36.343Z,96260.45
2019-05-30T09:45:05.289Z,96257.89
2019-05-30T09:47:32.612Z,96251.25
2019-05-30T09:50:03.711Z,96256.73
2019-05-30T09:52:29.286Z,96257.28
2019-05-30T09:54:56.615Z,96258.31
2019-05-30T09:57:23.958Z,96257.84
2019-05-30T09:59:52.230Z,96251.13
2019-05-30T10:02:19.754Z,96257.16
2019-05-30T10:04:48.440Z,96259.62
2019-05-30T10:07:15.891Z,96261.89
2019-05-30T10:09:44.535Z,96262.91
2019-05-30T10:12:12.570Z,96265.15
2019-05-30T10:14:39.969Z,96267.66
2019-05-30T10:17:07.356Z,96275.20
2019-05-30T10:19:34.719Z,96267.30
2019-05-30T10:22:02.181Z,96265.69
2019-05-30T10:24:29.633Z,96269.91
2019-05-30T10:26:57.409Z,96264.58
2019-05-30T10:29:24.882Z,96261.44
2019-05-30T10:31:52.677Z,96264.43
2019-05-30T10:34:20.161Z,96263.11
2019-05-30T10:36:48.888Z,96265.21
2019-05-30T10:39:16.781Z,96259.05
2019-05-30T10:41:44.603Z,96258.75
2019-05-30T10:44:13.418Z,96257.91
2019-05-30T10:46:40.850Z,96259.84
2019-05-30T10:49:08.239Z,96263.63
2019-05-30T10:51:35.603Z,96259.44
2019-05-30T10:54:03.222Z,96262.64
2019-05-30T10:56:30.590Z,96258.72
2019-05-30T10:58:57.922Z,96266.73
2019-05-30T11:01:25.339Z,96257.93
2019-05-30T11:03:52.731Z,96261.11
2019-05-30T11:06:27.336Z,96259.97
2019-05-30T11:08:56.695Z,96263.83
2019-05-30T11:11:24.378Z,96265.33
2019-05-30T11:13:53.181Z,96256.44
2019-05-30T11:16:20.829Z,96256.05
2019-05-30T11:18:49.431Z,96255.12
2019-05-30T11:21:17.479Z,96258.23
2019-05-30T11:23:44.878Z,96257.84
2019-05-30T11:26:12.291Z,96252.03
2019-05-30T11:28:39.683Z,96255.86
2019-05-30T11:31:07.088Z,96250.23
2019-05-30T11:33:34.478Z,96250.39
2019-05-30T11:36:01.803Z,96248.15
2019-05-30T11:38:29.153Z,96254.46
2019-05-30T11:40:57.542Z,96246.11
2019-05-30T11:43:25.104Z,96258.95
2019-05-30T11:45:53.550Z,96256.14
2019-05-30T11:48:21.098Z,96258.36
2019-05-30T11:50:50.319Z,96252.66
2019-05-30T11:53:17.793Z,96258.77
2019-05-30T11:55:45.150Z,96250.39
2019-05-30T11:58:12.522Z,96258.27
2019-05-30T12:00:40.019Z,96251.37
2019-05-30T12:03:07.432Z,96258.39
2019-05-30T12:05:34.752Z,96256.68
2019-05-30T12:08:02.169Z,96255.16
2019-05-30T12:10:30.433Z,96254.70
2019-05-30T12:12:57.790Z,96247.25
2019-05-30T12:15:25.478Z,96249.88
2019-05-30T12:17:53.234Z,96254.67
2019-05-30T12:20:20.802Z,96253.06
2019-05-30T12:22:48.213Z,96252.50
2019-05-30T12:25:15.732Z,96257.48
2019-05-30T12:27:43.109Z,96255.08
2019-05-30T12:30:11.200Z,96252.45
2019-05-30T12:32:38.534Z,96247.89
2019-05-30T12:35:06.469Z,96253.16
2019-05-30T12:37:33.782Z,96246.09
2019-05-30T12:40:01.098Z,96250.42
2019-05-30T12:42:28.445Z,96246.46
2019-05-30T12:44:56.957Z,96246.91
2019-05-30T12:47:24.392Z,96238.92
2019-05-30T12:49:53.203Z,96237.64
2019-05-30T12:52:20.750Z,96238.51
2019-05-30T12:54:48.102Z,96235.52
2019-05-30T12:57:15.509Z,96241.27
2019-05-30T12:59:44.866Z,96245.95
2019-05-30T13:02:12.252Z,96250.41
2019-05-30T13:04:39.651Z,96248.25
2019-05-30T13:07:07.636Z,96251.73
2019-05-30T13:09:35.280Z,96253.64
2019-05-30T13:12:02.690Z,96252.21
2019-05-30T13:14:30.051Z,96253.42
2019-05-30T13:16:57.716Z,96250.30
2019-05-30T13:19:25.268Z,96259.65
2019-05-30T13:21:53.833Z,96249.22
2019-05-30T13:24:21.886Z,96258.55
2019-05-30T13:26:49.252Z,96252.44
2019-05-30T13:29:16.666Z,96251.95
2019-05-30T13:31:44.041Z,96253.52
2019-05-30T13:34:11.443Z,96251.44
2019-05-30T13:36:38.871Z,96242.00
2019-05-30T13:39:07.535Z,96246.68
2019-05-30T13:41:35.573Z,96244.54
2019-05-30T13:44:06.383Z,96245.13
2019-05-30T13:46:32.403Z,96240.95
2019-05-30T13:49:00.780Z,96241.41
2019-05-30T13:51:28.680Z,96248.23
2019-05-30T13:53:56.033Z,96240.56
2019-05-30T13:56:23.464Z,96244.88
2019-05-30T13:58:50.838Z,96242.72
2019-05-30T14:01:18.194Z,96242.73
2019-05-30T14:03:45.655Z,96238.41
2019-05-30T14:06:13.100Z,96241.12
2019-05-30T14:08:41.912Z,96240.08
2019-05-30T14:11:10.740Z,96239.34
2019-05-30T14:13:38.580Z,96241.27
2019-05-30T14:16:06.865Z,96243.79
2019-05-30T14:18:34.388Z,96232.36
2019-05-30T14:21:02.278Z,96229.37
2019-05-30T14:23:31.055Z,96230.38
2019-05-30T14:25:58.437Z,96234.95
2019-05-30T14:28:25.832Z,96226.89
2019-05-30T14:30:53.238Z,96228.42
2019-05-30T14:33:20.630Z,96229.00
2019-05-30T14:35:48.023Z,96228.66
2019-05-30T14:38:15.437Z,96228.42
2019-05-30T14:40:42.831Z,96228.05
2019-05-30T14:43:11.536Z,96228.77
2019-05-30T14:45:39.198Z,96226.50
2019-05-30T14:48:06.628Z,96218.33
2019-05-30T14:50:33.991Z,96225.25
2019-05-30T14:53:01.432Z,96224.84
2019-05-30T14:55:28.823Z,96215.17
2019-05-30T14:57:58.306Z,96212.68
2019-05-30T15:00:25.513Z,96218.98
2019-05-30T15:02:52.923Z,96209.43
2019-05-30T15:05:20.360Z,96213.72
2019-05-30T15:07:47.784Z,96213.42
2019-05-30T15:10:16.833Z,96212.29
2019-05-30T15:12:44.883Z,96222.55
2019-05-30T15:15:16.601Z,96217.38
2019-05-30T15:17:43.509Z,96219.45
2019-05-30T15:20:13.891Z,96218.31
2019-05-30T15:22:42.031Z,96219.35
2019-05-30T15:25:10.020Z,96219.84
2019-05-30T15:27:37.535Z,96213.52
2019-05-30T15:30:06.340Z,96209.43
2019-05-30T15:32:33.891Z,96206.91
2019-05-30T15:35:01.255Z,96210.52
2019-05-30T15:37:28.658Z,96205.14
2019-05-30T15:39:56.058Z,96204.27
2019-05-30T15:42:23.483Z,96206.99
2019-05-30T15:44:51.118Z,96199.70
2019-05-30T15:47:18.545Z,96203.41
2019-05-30T15:49:46.023Z,96193.46
2019-05-30T15:52:13.454Z,96196.91
2019-05-30T15:54:40.854Z,96202.46
2019-05-30T15:57:09.186Z,96195.36
2019-05-30T15:59:36.693Z,96196.67
2019-05-30T16:02:04.376Z,96200.83
2019-05-30T16:04:31.843Z,96206.49
2019-05-30T16:06:59.239Z,96203.43
2019-05-30T16:09:26.772Z,96204.05
2019-05-30T16:11:54.133Z,96207.86
2019-05-30T16:14:21.667Z,96205.59
2019-05-30T16:16:49.037Z,96205.12
2019-05-30T16:19:21.968Z,96213.25
2019-05-30T16:21:45.750Z,96208.72
2019-05-30T16:24:14.284Z,96217.96
2019-05-30T16:26:42.231Z,96211.04
2019-05-30T16:29:09.594Z,96214.00
2019-05-30T16:31:37.003Z,96210.79
2019-05-30T16:34:04.371Z,96221.67
2019-05-30T16:36:32.182Z,96221.34
2019-05-30T16:38:59.599Z,96220.02
2019-05-30T16:41:27.013Z,96221.45
2019-05-30T16:43:54.380Z,96222.66
2019-05-30T16:46:22.690Z,96220.70
2019-05-30T16:48:50.220Z,96215.84
2019-05-30T16:51:18.739Z,96218.20
2019-05-30T16:53:46.294Z,96220.58
2019-05-30T16:56:13.689Z,96215.76
2019-05-30T16:58:41.094Z,96217.58
2019-05-30T17:01:08.495Z,96218.13
2019-05-30T17:03:35.852Z,96220.34
2019-05-30T17:06:03.414Z,96225.41
2019-05-30T17:08:30.812Z,96228.78
2019-05-30T17:11:00.936Z,96227.50
2019-05-30T17:13:31.222Z,96222.98
2019-05-30T17:15:57.612Z,96230.02
2019-05-30T17:18:26.198Z,96231.39
2019-05-30T17:20:54.834Z,96227.42
2019-05-30T17:23:22.749Z,96221.44
2019-05-30T17:25:50.369Z,96229.00
2019-05-30T17:28:18.120Z,96231.44
2019-05-30T17:30:45.592Z,96233.52
2019-05-30T17:33:13.386Z,96229.86
2019-05-30T17:35:40.780Z,96237.27
2019-05-30T17:38:08.199Z,96245.23
2019-05-30T17:40:44.665Z,96245.20
2019-05-30T17:43:06.217Z,96253.00
2019-05-30T17:45:33.597Z,96248.30
2019-05-30T17:48:15.657Z,96257.14
2019-05-30T17:50:30.400Z,96252.83
2019-05-30T17:52:57.757Z,96261.68
2019-05-30T17:55:26.020Z,96267.42
2019-05-30T17:57:53.562Z,96267.55
2019-05-30T18:00:24.307Z,96263.98
2019-05-30T18:02:51.912Z,96269.37
2019-05-30T18:05:20.442Z,96270.19
2019-05-30T18:07:48.667Z,96278.83
2019-05-30T18:10:16.301Z,96272.22
2019-05-30T18:12:43.853Z,96267.36
2019-05-30T18:15:15.602Z,96267.92
2019-05-30T18:17:44.072Z,96268.92
2019-05-30T18:20:12.699Z,96270.84
2019-05-30T18:22:43.009Z,96269.49
2019-05-30T18:25:11.081Z,96272.19
2019-05-30T18:27:39.662Z,96275.75
2019-05-30T18:30:07.729Z,96273.38
2019-05-30T18:32:35.309Z,96277.84
2019-05-30T18:35:03.589Z,96279.20
2019-05-30T18:37:39.544Z,96281.54
2019-05-30T18:40:09.569Z,96275.62
2019-05-30T18:42:37.624Z,96283.66
2019-05-30T18:45:06.605Z,96289.71
2019-05-30T18:47:34.303Z,96281.24
2019-05-30T18:50:02.794Z,96284.27
2019-05-30T18:52:30.678Z,96282.24
2019-05-30T18:55:00.085Z,96286.71
2019-05-30T18:57:28.670Z,96287.88
2019-05-30T19:00:01.102Z,96283.77
2019-05-30T19:02:29.279Z,96288.48
2019-05-30T19:04:58.126Z,96292.79
2019-05-30T19:07:26.719Z,96294.27
2019-05-30T19:09:54.473Z,96297.80
2019-05-30T19:12:24.309Z,96299.06
2019-05-30T19:14:52.413Z,96304.59
2019-05-30T19:17:21.148Z,96309.77
2019-05-30T19:19:51.293Z,96309.14
2019-05-30T19:22:20.864Z,96309.33
2019-05-30T19:24:49.459Z,96311.19
2019-05-30T19:27:18.251Z,96318.61
2019-05-30T19:32:38.588Z,96326.53
2019-05-30T19:35:06.649Z,96326.45
2019-05-30T19:37:35.358Z,96332.53
2019-05-30T19:40:05.789Z,96334.41
2019-05-30T19:42:35.685Z,96332.36
2019-05-30T19:45:03.529Z,96342.69
2019-05-30T19:47:32.351Z,96347.36
2019-05-30T19:50:01.683Z,96350.80
2019-05-30T19:52:30.606Z,96351.77
2019-05-30T19:54:58.535Z,96356.31
2019-05-30T19:57:27.310Z,96358.17
2019-05-30T19:59:57.425Z,96366.88
2019-05-30T20:02:25.295Z,96365.92
2019-05-30T20:04:53.918Z,96367.36
2019-05-30T20:07:21.840Z,96371.14
2019-05-30T20:10:00.793Z,96373.20
2019-05-30T20:12:21.965Z,96373.69
2019-05-30T20:14:49.827Z,96378.20
2019-05-30T20:17:17.709Z,96384.17
2019-05-30T20:19:45.627Z,96376.91
2019-05-30T20:22:14.182Z,96381.30
2019-05-30T20:24:42.668Z,96388.22
2019-05-30T20:27:10.200Z,96386.81
2019-05-30T20:29:37.622Z,96383.07
2019-05-30T20:32:07.282Z,96386.13
2019-05-30T20:34:35.147Z,96389.42
2019-05-30T20:37:02.534Z,96391.61
2019-05-30T20:39:29.922Z,96400.69
2019-05-30T20:41:57.369Z,96398.91
2019-05-30T20:44:24.752Z,96404.43
2019-05-30T20:46:52.112Z,96406.31
2019-05-30T20:49:23.022Z,96400.31
2019-05-30T20:51:50.891Z,96406.88
2019-05-30T20:54:18.305Z,96412.50
2019-05-30T20:56:50.076Z,96409.41
2019-05-30T20:59:15.574Z,96418.31
2019-05-30T21:01:43.793Z,96413.44
2019-05-30T21:04:11.296Z,96414.46
2019-05-30T21:06:41.518Z,96424.09
2019-05-30T21:09:27.490Z,96421.48
2019-05-30T21:11:40.291Z,96424.30
2019-05-30T21:14:07.759Z,96425.61
2019-05-30T21:16:35.679Z,96425.05
2019-05-30T21:19:03.395Z,96426.46
2019-05-30T21:21:30.823Z,96428.95
2019-05-30T21:23:58.188Z,96429.16
2019-05-30T21:26:25.532Z,96435.78
2019-05-30T21:28:52.927Z,96431.41
2019-05-30T21:31:20.278Z,96435.31
2019-05-30T21:33:48.343Z,96438.15
2019-05-30T21:36:16.258Z,96434.11
2019-05-30T21:38:43.956Z,96439.66
2019-05-30T21:41:11.451Z,96434.78
2019-05-30T21:43:38.814Z,96433.45
2019-05-30T21:46:06.291Z,96428.23
2019-05-30T21:48:33.677Z,96437.42
2019-05-30T21:51:01.056Z,96428.61
2019-05-30T21:53:28.405Z,96429.36
2019-05-30T21:55:55.791Z,96438.48
2019-05-30T21:58:23.143Z,96441.91
2019-05-30T22:01:29.243Z,96441.91
2019-05-30T22:03:56.579Z,96437.23
2019-05-30T22:06:23.940Z,96442.85
2019-05-30T22:08:51.578Z,96438.45
2019-05-30T22:11:19.657Z,96431.48
2019-05-30T22:13:47.697Z,96427.55
2019-05-30T22:16:15.317Z,96430.86
2019-05-30T22:18:44.088Z,96434.23
2019-05-30T22:21:11.683Z,96439.61
2019-05-30T22:23:39.056Z,96445.13
2019-05-30T22:26:06.447Z,96439.90
2019-05-30T22:28:33.817Z,96435.06
2019-05-30T22:31:01.168Z,96434.02
2019-05-30T22:33:28.561Z,96436.50
2019-05-30T22:35:55.950Z,96431.14
2019-05-30T22:38:23.289Z,96423.06
2019-05-30T22:40:51.977Z,96427.28
2019-05-30T22:43:25.241Z,96429.91
2019-05-30T22:45:50.272Z,96432.06
2019-05-30T22:48:17.910Z,96436.84
2019-05-30T22:50:45.287Z,96435.41
2019-05-30T22:53:12.632Z,96443.80
2019-05-30T22:55:39.997Z,96434.13
2019-05-30T22:58:07.350Z,96432.20
2019-05-30T23:00:34.738Z,96432.77
2019-05-30T23:03:02.137Z,96433.37
2019-05-30T23:05:29.489Z,96428.95
2019-05-30T23:07:56.839Z,96439.44
2019-05-30T23:10:24.229Z,96438.83
2019-05-30T23:12:51.943Z,96441.35
2019-05-30T23:15:19.669Z,96446.11
2019-05-30T23:17:48.239Z,96446.45
2019-05-30T23:20:15.833Z,96448.38
2019-05-30T23:22:43.193Z,96442.98
2019-05-30T23:25:10.676Z,96449.36
2019-05-30T23:27:38.038Z,96444.10
2019-05-30T23:30:06.284Z,96446.88
2019-05-30T23:32:33.716Z,96438.30
2019-05-30T23:35:01.097Z,96444.39
2019-05-30T23:37:28.450Z,96442.95
2019-05-30T23:39:56.877Z,96437.72
2019-05-30T23:42:24.352Z,96435.89
2019-05-30T23:44:51.720Z,96443.43
2019-05-30T23:47:19.170Z,96444.70
2019-05-30T23:49:46.657Z,96436.95
2019-05-30T23:52:13.970Z,96443.95
2019-05-30T23:54:41.391Z,96438.68
2019-05-30T23:57:08.759Z,96429.98
2019-05-30T23:59:36.109Z,96438.81
